createdAt,value
2019-04-25T00:00:38.694Z,11.09
2019-04-25T00:01:38.684Z,11.15
2019-04-25T00:02:38.705Z,11.00
2019-04-25T00:03:38.659Z,10.94
2019-04-25T00:04:38.763Z,11.00
2019-04-25T00:05:38.783Z,10.96
2019-04-25T00:06:38.662Z,10.91
2019-04-25T00:07:38.749Z,10.85
2019-04-25T00:08:38.824Z,10.85
2019-04-25T00:09:38.991Z,10.88
2019-04-25T00:10:39.190Z,10.84
2019-04-25T00:11:39.291Z,10.81
2019-04-25T00:12:39.395Z,10.82
2019-04-25T00:13:39.632Z,10.81
2019-04-25T00:14:38.535Z,10.71
2019-04-25T00:15:38.524Z,10.71
2019-04-25T00:16:38.713Z,10.78
2019-04-25T00:17:38.602Z,10.73
2019-04-25T00:18:38.657Z,10.71
2019-04-25T00:19:38.760Z,10.82
2019-04-25T00:20:38.923Z,10.82
2019-04-25T00:21:39.237Z,10.79
2019-04-25T00:22:39.283Z,10.81
2019-04-25T00:23:39.371Z,10.76
2019-04-25T00:24:39.602Z,10.71
2019-04-25T00:25:38.437Z,10.68
2019-04-25T00:26:38.400Z,10.63
2019-04-25T00:27:38.405Z,10.61
2019-04-25T00:28:38.377Z,10.56
2019-04-25T00:29:38.365Z,10.47
2019-04-25T00:30:38.372Z,10.52
2019-04-25T00:31:38.367Z,10.44
2019-04-25T00:32:38.329Z,10.40
2019-04-25T00:33:38.323Z,10.36
2019-04-25T00:34:38.307Z,10.36
2019-04-25T00:35:38.325Z,10.30
2019-04-25T00:36:39.099Z,10.26
2019-04-25T00:37:38.273Z,10.17
2019-04-25T00:38:38.279Z,10.22
2019-04-25T00:39:38.250Z,10.12
2019-04-25T00:40:38.254Z,10.05
2019-04-25T00:41:38.253Z,10.09
2019-04-25T00:42:38.216Z,9.96
2019-04-25T00:43:38.212Z,9.94
2019-04-25T00:44:38.220Z,9.91
2019-04-25T00:45:38.185Z,9.96
2019-04-25T00:46:38.231Z,9.96
2019-04-25T00:47:38.161Z,9.87
2019-04-25T00:48:38.154Z,9.78
2019-04-25T00:49:38.561Z,9.78
2019-04-25T00:50:38.127Z,9.74
2019-04-25T00:51:38.116Z,9.75
2019-04-25T00:52:38.158Z,9.83
2019-04-25T00:53:38.120Z,9.78
2019-04-25T00:54:38.089Z,9.78
2019-04-25T00:55:38.071Z,9.71
2019-04-25T00:56:38.076Z,9.72
2019-04-25T00:57:38.073Z,9.60
2019-04-25T00:58:38.038Z,9.58
2019-04-25T00:59:38.028Z,9.66
2019-04-25T01:00:38.043Z,9.51
2019-04-25T01:01:38.007Z,9.47
2019-04-25T01:02:38.015Z,9.47
2019-04-25T01:03:37.981Z,9.48
2019-04-25T01:04:37.970Z,9.51
2019-04-25T01:05:37.957Z,9.46
2019-04-25T01:06:37.948Z,9.53
2019-04-25T01:07:37.970Z,9.51
2019-04-25T01:08:37.924Z,9.51
2019-04-25T01:09:37.912Z,9.38
2019-04-25T01:10:37.902Z,9.31
2019-04-25T01:11:37.890Z,9.33
2019-04-25T01:12:37.892Z,9.33
2019-04-25T01:13:37.866Z,9.42
2019-04-25T01:14:37.859Z,9.33
2019-04-25T01:15:37.846Z,9.26
2019-04-25T01:16:37.834Z,9.28
2019-04-25T01:17:37.846Z,9.23
2019-04-25T01:18:37.835Z,9.17
2019-04-25T01:19:37.801Z,9.17
2019-04-25T01:20:37.788Z,9.18
2019-04-25T01:21:37.785Z,9.18
2019-04-25T01:22:37.796Z,9.15
2019-04-25T01:23:37.755Z,9.14
2019-04-25T01:24:37.768Z,9.17
2019-04-25T01:25:40.961Z,9.11
2019-04-25T01:26:37.748Z,9.18
2019-04-25T01:27:37.710Z,9.17
2019-04-25T01:28:37.699Z,9.04
2019-04-25T01:29:37.735Z,9.10
2019-04-25T01:30:37.676Z,9.05
2019-04-25T01:31:37.670Z,8.92
2019-04-25T01:32:37.657Z,8.94
2019-04-25T01:33:37.642Z,8.84
2019-04-25T01:34:37.653Z,8.81
2019-04-25T01:35:37.622Z,8.74
2019-04-25T01:36:37.609Z,8.76
2019-04-25T01:37:37.598Z,8.79
2019-04-25T01:38:37.612Z,8.74
2019-04-25T01:39:37.577Z,8.77
2019-04-25T01:40:37.567Z,8.76
2019-04-25T01:41:37.552Z,8.76
2019-04-25T01:42:37.567Z,8.83
2019-04-25T01:43:37.534Z,8.74
2019-04-25T01:44:37.519Z,8.71
2019-04-25T01:45:37.530Z,8.80
2019-04-25T01:46:37.521Z,8.66
2019-04-25T01:47:37.485Z,8.71
2019-04-25T01:48:37.474Z,8.80
2019-04-25T01:49:37.467Z,8.65
2019-04-25T01:50:37.474Z,8.65
2019-04-25T01:51:37.440Z,8.65
2019-04-25T01:52:37.428Z,8.66
2019-04-25T01:53:37.419Z,8.68
2019-04-25T01:54:37.428Z,8.65
2019-04-25T01:55:37.393Z,8.62
2019-04-25T01:56:37.382Z,8.63
2019-04-25T01:57:37.371Z,8.68
2019-04-25T01:58:37.363Z,8.62
2019-04-25T01:59:37.372Z,8.59
2019-04-25T02:00:37.338Z,8.61
2019-04-25T02:01:37.325Z,8.52
2019-04-25T02:02:37.316Z,8.59
2019-04-25T02:03:37.303Z,8.59
2019-04-25T02:04:37.313Z,8.55
2019-04-25T02:05:37.303Z,8.50
2019-04-25T02:06:37.268Z,8.48
2019-04-25T02:07:37.261Z,8.48
2019-04-25T02:08:37.249Z,8.47
2019-04-25T02:09:37.261Z,8.45
2019-04-25T02:10:37.225Z,8.40
2019-04-25T02:11:37.212Z,8.41
2019-04-25T02:12:37.203Z,8.41
2019-04-25T02:13:37.216Z,8.44
2019-04-25T02:14:37.179Z,8.40
2019-04-25T02:15:37.168Z,8.44
2019-04-25T02:16:37.158Z,8.37
2019-04-25T02:17:37.145Z,8.30
2019-04-25T02:18:37.156Z,8.28
2019-04-25T02:19:37.122Z,8.25
2019-04-25T02:20:37.110Z,8.20
2019-04-25T02:21:37.122Z,8.12
2019-04-25T02:22:37.091Z,8.18
2019-04-25T02:23:37.076Z,8.15
2019-04-25T02:24:37.066Z,8.16
2019-04-25T02:25:37.077Z,8.18
2019-04-25T02:26:37.042Z,8.10
2019-04-25T02:27:37.032Z,8.11
2019-04-25T02:28:37.021Z,8.08
2019-04-25T02:29:37.039Z,8.04
2019-04-25T02:30:37.038Z,8.08
2019-04-25T02:31:36.989Z,8.05
2019-04-25T02:32:37.357Z,8.02
2019-04-25T02:33:36.967Z,8.07
2019-04-25T02:34:36.977Z,7.97
2019-04-25T02:35:36.943Z,7.93
2019-04-25T02:36:36.956Z,7.92
2019-04-25T02:37:36.925Z,7.98
2019-04-25T02:38:36.912Z,7.98
2019-04-25T02:39:37.574Z,7.98
2019-04-25T02:40:36.915Z,7.93
2019-04-25T02:41:36.901Z,7.87
2019-04-25T02:42:36.865Z,7.86
2019-04-25T02:43:36.853Z,7.87
2019-04-25T02:44:36.870Z,7.82
2019-04-25T02:45:36.868Z,7.80
2019-04-25T02:46:37.236Z,7.77
2019-04-25T02:47:36.809Z,7.85
2019-04-25T02:48:36.798Z,7.80
2019-04-25T02:49:39.648Z,7.79
2019-04-25T02:50:36.797Z,7.80
2019-04-25T02:51:36.786Z,7.79
2019-04-25T02:52:36.755Z,7.83
2019-04-25T02:53:37.507Z,7.74
2019-04-25T02:54:36.752Z,7.64
2019-04-25T02:55:37.502Z,7.68
2019-04-25T02:56:38.839Z,7.67
2019-04-25T02:57:36.717Z,7.67
2019-04-25T02:58:36.687Z,7.63
2019-04-25T02:59:37.006Z,7.61
2019-04-25T03:00:51.619Z,7.64
2019-04-25T03:01:37.679Z,7.69
2019-04-25T03:02:37.102Z,7.68
2019-04-25T03:03:36.668Z,7.53
2019-04-25T03:04:36.641Z,7.53
2019-04-25T03:05:36.640Z,7.60
2019-04-25T03:06:36.647Z,7.63
2019-04-25T03:07:36.613Z,7.58
2019-04-25T03:08:36.575Z,7.53
2019-04-25T03:09:36.563Z,7.53
2019-04-25T03:10:36.553Z,7.45
2019-04-25T03:11:36.543Z,7.43
2019-04-25T03:12:36.907Z,7.39
2019-04-25T03:13:36.516Z,7.30
2019-04-25T03:14:36.506Z,7.28
2019-04-25T03:15:36.730Z,7.27
2019-04-25T03:16:36.510Z,7.23
2019-04-25T03:17:36.473Z,7.17
2019-04-25T03:18:36.486Z,7.21
2019-04-25T03:19:36.450Z,7.20
2019-04-25T03:20:36.443Z,7.25
2019-04-25T03:21:36.452Z,7.12
2019-04-25T03:22:36.415Z,7.10
2019-04-25T03:23:36.429Z,7.09
2019-04-25T03:24:36.393Z,7.05
2019-04-25T03:25:36.384Z,7.07
2019-04-25T03:26:40.302Z,7.10
2019-04-25T03:27:36.360Z,7.05
2019-04-25T03:28:36.379Z,7.13
2019-04-25T03:29:36.343Z,7.15
2019-04-25T03:30:36.327Z,7.09
2019-04-25T03:31:36.328Z,7.09
2019-04-25T03:32:36.304Z,7.12
2019-04-25T03:33:38.348Z,7.03
2019-04-25T03:34:36.284Z,7.05
2019-04-25T03:35:36.271Z,6.94
2019-04-25T03:36:36.259Z,6.97
2019-04-25T03:37:36.271Z,6.91
2019-04-25T03:38:36.239Z,6.91
2019-04-25T03:39:36.230Z,6.84
2019-04-25T03:40:36.213Z,6.87
2019-04-25T03:41:36.203Z,6.87
2019-04-25T03:42:36.219Z,6.81
2019-04-25T03:43:36.180Z,6.95
2019-04-25T03:44:36.169Z,6.87
2019-04-25T03:45:36.159Z,6.80
2019-04-25T03:46:36.152Z,6.89
2019-04-25T03:47:36.152Z,6.88
2019-04-25T03:48:37.004Z,6.77
2019-04-25T03:49:36.113Z,6.81
2019-04-25T03:50:36.107Z,6.81
2019-04-25T03:51:36.116Z,6.84
2019-04-25T03:52:36.079Z,6.81
2019-04-25T03:53:36.067Z,6.89
2019-04-25T03:54:36.088Z,6.95
2019-04-25T03:55:36.053Z,6.98
2019-04-25T03:56:36.060Z,6.94
2019-04-25T03:57:36.026Z,6.97
2019-04-25T03:58:36.012Z,6.92
2019-04-25T03:59:36.002Z,6.99
2019-04-25T04:00:36.464Z,7.09
2019-04-25T04:01:35.977Z,7.03
2019-04-25T04:02:35.973Z,7.03
2019-04-25T04:03:35.962Z,7.06
2019-04-25T04:04:35.969Z,6.98
2019-04-25T04:05:35.934Z,7.10
2019-04-25T04:06:35.922Z,7.06
2019-04-25T04:07:35.911Z,7.13
2019-04-25T04:08:35.917Z,7.10
2019-04-25T04:09:35.920Z,7.10
2019-04-25T04:10:35.879Z,7.06
2019-04-25T04:11:35.869Z,7.09
2019-04-25T04:12:35.854Z,7.02
2019-04-25T04:13:35.843Z,7.02
2019-04-25T04:14:35.854Z,7.09
2019-04-25T04:15:35.823Z,7.10
2019-04-25T04:16:35.814Z,7.10
2019-04-25T04:17:35.807Z,7.09
2019-04-25T04:18:35.788Z,7.15
2019-04-25T04:19:35.807Z,7.17
2019-04-25T04:20:35.767Z,7.10
2019-04-25T04:21:35.754Z,7.10
2019-04-25T04:22:35.747Z,7.10
2019-04-25T04:23:35.731Z,7.05
2019-04-25T04:24:35.742Z,7.06
2019-04-25T04:25:35.712Z,7.12
2019-04-25T04:26:35.698Z,7.12
2019-04-25T04:27:35.689Z,6.99
2019-04-25T04:28:35.679Z,7.09
2019-04-25T04:29:35.702Z,7.10
2019-04-25T04:30:35.655Z,7.06
2019-04-25T04:31:35.645Z,7.06
2019-04-25T04:32:35.631Z,7.06
2019-04-25T04:33:35.619Z,7.10
2019-04-25T04:34:35.633Z,7.10
2019-04-25T04:35:35.597Z,7.10
2019-04-25T04:36:35.586Z,7.12
2019-04-25T04:37:35.598Z,7.17
2019-04-25T04:38:35.581Z,7.13
2019-04-25T04:39:35.551Z,7.06
2019-04-25T04:40:36.207Z,7.07
2019-04-25T04:41:35.553Z,7.03
2019-04-25T04:42:35.521Z,7.10
2019-04-25T04:43:35.508Z,7.13
2019-04-25T04:44:35.501Z,7.09
2019-04-25T04:45:35.521Z,7.10
2019-04-25T04:46:35.488Z,7.13
2019-04-25T04:47:35.460Z,7.10
2019-04-25T04:48:35.449Z,7.13
2019-04-25T04:49:35.442Z,7.09
2019-04-25T04:50:35.573Z,7.10
2019-04-25T04:51:35.421Z,7.12
2019-04-25T04:52:35.420Z,7.10
2019-04-25T04:53:35.843Z,7.09
2019-04-25T04:54:35.391Z,7.07
2019-04-25T04:55:35.375Z,7.07
2019-04-25T04:56:35.381Z,7.10
2019-04-25T04:57:36.405Z,7.13
2019-04-25T04:58:35.341Z,7.12
2019-04-25T04:59:35.368Z,7.23
2019-04-25T05:00:35.314Z,7.23
2019-04-25T05:01:35.327Z,7.25
2019-04-25T05:02:36.030Z,7.21
2019-04-25T05:03:35.282Z,7.28
2019-04-25T05:04:35.273Z,7.31
2019-04-25T05:05:36.030Z,7.28
2019-04-25T05:06:35.247Z,7.31
2019-04-25T05:07:35.237Z,7.35
2019-04-25T05:08:35.234Z,7.45
2019-04-25T05:09:35.238Z,7.45
2019-04-25T05:10:35.205Z,7.50
2019-04-25T05:11:35.194Z,7.46
2019-04-25T05:12:35.185Z,7.45
2019-04-25T05:13:35.172Z,7.57
2019-04-25T05:14:35.201Z,7.63
2019-04-25T05:15:35.148Z,7.57
2019-04-25T05:16:35.140Z,7.53
2019-04-25T05:17:35.128Z,7.61
2019-04-25T05:18:39.441Z,7.71
2019-04-25T05:19:35.129Z,7.69
2019-04-25T05:20:35.602Z,7.75
2019-04-25T05:21:35.082Z,7.80
2019-04-25T05:22:35.070Z,7.86
2019-04-25T05:23:35.083Z,7.98
2019-04-25T05:24:35.046Z,8.01
2019-04-25T05:25:35.035Z,8.08
2019-04-25T05:26:35.027Z,8.15
2019-04-25T05:27:46.296Z,8.18
2019-04-25T05:28:36.002Z,8.28
2019-04-25T05:29:34.992Z,8.38
2019-04-25T05:30:34.979Z,8.44
2019-04-25T05:31:34.989Z,8.48
2019-04-25T05:32:34.964Z,8.50
2019-04-25T05:33:34.951Z,8.62
2019-04-25T05:34:34.934Z,8.59
2019-04-25T05:35:34.947Z,8.68
2019-04-25T05:36:34.918Z,8.68
2019-04-25T05:37:34.929Z,8.62
2019-04-25T05:38:34.899Z,8.73
2019-04-25T05:39:34.877Z,8.74
2019-04-25T05:40:34.891Z,8.74
2019-04-25T05:41:35.981Z,8.87
2019-04-25T05:42:34.845Z,8.89
2019-04-25T05:43:34.858Z,8.87
2019-04-25T05:44:34.821Z,8.94
2019-04-25T05:45:34.811Z,8.92
2019-04-25T05:46:34.802Z,8.96
2019-04-25T05:47:34.791Z,9.08
2019-04-25T05:48:34.799Z,9.01
2019-04-25T05:49:34.765Z,9.13
2019-04-25T05:50:34.780Z,9.10
2019-04-25T05:51:34.743Z,9.13
2019-04-25T05:52:34.731Z,9.15
2019-04-25T05:53:34.719Z,9.38
2019-04-25T05:54:34.707Z,9.48
2019-04-25T05:55:34.721Z,9.64
2019-04-25T05:56:34.686Z,9.76
2019-04-25T05:57:45.507Z,9.81
2019-04-25T05:58:35.683Z,9.89
2019-04-25T05:59:34.674Z,10.25
2019-04-25T06:00:34.662Z,10.51
2019-04-25T06:01:35.826Z,10.67
2019-04-25T06:02:34.619Z,10.88
2019-04-25T06:03:34.606Z,11.09
2019-04-25T06:04:34.595Z,11.24
2019-04-25T06:05:34.610Z,11.46
2019-04-25T06:06:36.604Z,11.51
2019-04-25T06:07:34.584Z,11.58
2019-04-25T06:08:34.591Z,11.86
2019-04-25T06:09:35.852Z,12.04
2019-04-25T06:10:34.528Z,12.27
2019-04-25T06:11:34.518Z,12.39
2019-04-25T06:12:34.506Z,12.60
2019-04-25T06:13:34.527Z,12.62
2019-04-25T06:14:34.499Z,12.75
2019-04-25T06:15:34.471Z,12.83
2019-04-25T06:16:34.483Z,12.92
2019-04-25T06:17:34.464Z,12.95
2019-04-25T06:18:34.438Z,13.14
2019-04-25T06:19:34.450Z,13.08
2019-04-25T06:20:34.445Z,13.10
2019-04-25T06:21:34.405Z,13.03
2019-04-25T06:22:34.392Z,12.97
2019-04-25T06:23:34.380Z,12.97
2019-04-25T06:24:34.400Z,13.08
2019-04-25T06:25:39.457Z,12.97
2019-04-25T06:26:39.726Z,13.11
2019-04-25T06:27:35.200Z,13.32
2019-04-25T06:28:34.639Z,13.26
2019-04-25T06:29:34.781Z,13.32
2019-04-25T06:30:35.247Z,13.42
2019-04-25T06:31:34.293Z,13.45
2019-04-25T06:32:35.479Z,13.44
2019-04-25T06:33:34.364Z,13.46
2019-04-25T06:34:36.327Z,13.39
2019-04-25T06:35:35.684Z,13.44
2019-04-25T06:36:35.354Z,13.36
2019-04-25T06:37:35.138Z,13.39
2019-04-25T06:38:34.232Z,13.26
2019-04-25T06:39:34.198Z,13.30
2019-04-25T06:40:34.583Z,13.44
2019-04-25T06:41:35.290Z,13.42
2019-04-25T06:42:34.699Z,13.48
2019-04-25T06:43:34.324Z,13.52
2019-04-25T06:44:34.571Z,13.55
2019-04-25T06:45:34.487Z,13.62
2019-04-25T06:46:34.120Z,13.60
2019-04-25T06:47:34.185Z,13.51
2019-04-25T06:48:35.182Z,13.70
2019-04-25T06:49:36.502Z,13.59
2019-04-25T06:50:35.305Z,13.52
2019-04-25T06:51:34.351Z,13.49
2019-04-25T06:52:35.409Z,13.59
2019-04-25T06:53:34.701Z,13.62
2019-04-25T06:54:35.295Z,13.71
2019-04-25T06:55:34.386Z,13.82
2019-04-25T06:56:34.485Z,13.99
2019-04-25T06:57:34.224Z,14.14
2019-04-25T06:58:34.299Z,14.20
2019-04-25T06:59:34.460Z,14.24
2019-04-25T07:00:40.784Z,14.28
2019-04-25T07:01:34.951Z,14.40
2019-04-25T07:02:35.184Z,14.43
2019-04-25T07:03:35.609Z,14.36
2019-04-25T07:04:34.823Z,14.55
2019-04-25T07:05:40.271Z,14.61
2019-04-25T07:06:34.900Z,14.94
2019-04-25T07:07:35.107Z,15.10
2019-04-25T07:08:35.375Z,15.34
2019-04-25T07:09:34.952Z,15.53
2019-04-25T07:10:34.884Z,15.67
2019-04-25T07:11:34.870Z,15.89
2019-04-25T07:12:34.850Z,16.17
2019-04-25T07:13:36.928Z,16.45
2019-04-25T07:14:36.655Z,16.76
2019-04-25T07:15:35.191Z,16.83
2019-04-25T07:16:34.672Z,17.04
2019-04-25T07:17:35.006Z,17.26
2019-04-25T07:18:36.357Z,17.43
2019-04-25T07:19:34.387Z,17.52
2019-04-25T07:20:34.595Z,17.71
2019-04-25T07:21:34.642Z,17.81
2019-04-25T07:22:35.077Z,17.72
2019-04-25T07:23:34.648Z,17.96
2019-04-25T07:24:35.236Z,17.92
2019-04-25T07:25:35.303Z,18.03
2019-04-25T07:26:37.708Z,18.00
2019-04-25T07:27:35.584Z,18.17
2019-04-25T07:28:35.588Z,18.41
2019-04-25T07:29:34.575Z,18.39
2019-04-25T07:30:49.017Z,18.23
2019-04-25T07:31:35.635Z,18.27
2019-04-25T07:32:34.871Z,18.10
2019-04-25T07:33:34.820Z,18.00
2019-04-25T07:34:34.151Z,18.15
2019-04-25T07:35:34.602Z,18.33
2019-04-25T07:36:35.114Z,18.47
2019-04-25T07:37:34.901Z,18.55
2019-04-25T07:38:34.098Z,18.55
2019-04-25T07:39:34.384Z,18.69
2019-04-25T07:40:34.883Z,18.80
2019-04-25T07:41:34.303Z,18.78
2019-04-25T07:42:34.231Z,18.91
2019-04-25T07:43:34.128Z,19.08
2019-04-25T07:44:43.955Z,18.84
2019-04-25T07:45:35.047Z,18.55
2019-04-25T07:46:37.228Z,18.20
2019-04-25T07:47:35.479Z,18.00
2019-04-25T07:48:36.309Z,18.23
2019-04-25T07:49:34.723Z,18.47
2019-04-25T07:50:34.325Z,18.82
2019-04-25T07:51:34.607Z,18.98
2019-04-25T07:52:34.846Z,19.11
2019-04-25T07:53:34.801Z,19.19
2019-04-25T07:54:34.375Z,19.28
2019-04-25T07:55:35.948Z,19.48
2019-04-25T07:56:34.999Z,19.73
2019-04-25T07:57:34.600Z,19.78
2019-04-25T07:58:45.362Z,19.83
2019-04-25T07:59:35.375Z,19.96
2019-04-25T08:00:35.140Z,20.14
2019-04-25T08:01:36.147Z,20.20
2019-04-25T08:02:34.142Z,19.96
2019-04-25T08:03:34.427Z,20.14
2019-04-25T08:04:35.684Z,20.26
2019-04-25T08:05:35.180Z,19.96
2019-04-25T08:06:34.479Z,20.05
2019-04-25T08:07:33.919Z,20.24
2019-04-25T08:08:33.965Z,20.42
2019-04-25T08:09:35.224Z,20.69
2019-04-25T08:10:33.876Z,20.74
2019-04-25T08:11:34.171Z,20.76
2019-04-25T08:12:34.673Z,20.69
2019-04-25T08:13:34.252Z,20.87
2019-04-25T08:14:34.206Z,20.99
2019-04-25T08:15:33.869Z,21.07
2019-04-25T08:16:34.360Z,21.14
2019-04-25T08:17:34.652Z,20.94
2019-04-25T08:18:34.802Z,21.14
2019-04-25T08:19:33.544Z,21.27
2019-04-25T08:20:34.750Z,21.06
2019-04-25T08:21:34.382Z,21.10
2019-04-25T08:22:34.513Z,20.87
2019-04-25T08:23:36.708Z,20.74
2019-04-25T08:24:34.613Z,20.52
2019-04-25T08:25:33.792Z,20.52
2019-04-25T08:26:34.982Z,20.42
2019-04-25T08:27:34.387Z,20.41
2019-04-25T08:28:34.497Z,20.67
2019-04-25T08:29:36.436Z,21.01
2019-04-25T08:30:35.169Z,21.13
2019-04-25T08:31:34.815Z,21.24
2019-04-25T08:32:34.827Z,21.52
2019-04-25T08:33:34.544Z,21.42
2019-04-25T08:34:34.816Z,21.50
2019-04-25T08:35:34.232Z,21.47
2019-04-25T08:36:33.756Z,21.40
2019-04-25T08:37:34.480Z,21.43
2019-04-25T08:38:34.504Z,21.44
2019-04-25T08:39:34.063Z,21.28
2019-04-25T08:40:35.012Z,21.44
2019-04-25T08:41:34.822Z,21.54
2019-04-25T08:42:35.391Z,21.10
2019-04-25T08:43:36.341Z,21.12
2019-04-25T08:44:34.505Z,21.38
2019-04-25T08:45:33.587Z,21.68
2019-04-25T08:46:35.790Z,21.90
2019-04-25T08:47:34.817Z,22.09
2019-04-25T08:48:34.321Z,22.20
2019-04-25T08:49:34.493Z,22.35
2019-04-25T08:50:35.833Z,22.43
2019-04-25T08:51:34.843Z,22.47
2019-04-25T08:52:35.053Z,22.45
2019-04-25T08:53:34.449Z,22.55
2019-04-25T08:54:35.399Z,22.62
2019-04-25T08:55:34.938Z,22.80
2019-04-25T08:56:34.943Z,22.88
2019-04-25T08:57:34.140Z,22.73
2019-04-25T08:58:34.483Z,22.75
2019-04-25T08:59:39.930Z,22.85
2019-04-25T09:00:35.718Z,22.86
2019-04-25T09:01:36.535Z,23.05
2019-04-25T09:02:36.071Z,22.85
2019-04-25T09:03:34.629Z,22.60
2019-04-25T09:04:34.292Z,22.57
2019-04-25T09:05:33.387Z,22.52
2019-04-25T09:06:33.326Z,22.31
2019-04-25T09:07:35.054Z,21.83
2019-04-25T09:08:35.417Z,21.99
2019-04-25T09:09:34.963Z,22.24
2019-04-25T09:10:35.219Z,22.18
2019-04-25T09:11:34.796Z,22.35
2019-04-25T09:12:35.190Z,22.39
2019-04-25T09:13:33.058Z,22.45
2019-04-25T09:14:34.861Z,22.22
2019-04-25T09:15:33.731Z,22.27
2019-04-25T09:16:34.527Z,22.31
2019-04-25T09:17:33.183Z,22.58
2019-04-25T09:18:34.733Z,22.61
2019-04-25T09:19:33.349Z,22.68
2019-04-25T09:20:34.681Z,22.80
2019-04-25T09:21:36.100Z,23.01
2019-04-25T09:22:35.031Z,23.15
2019-04-25T09:23:34.412Z,22.97
2019-04-25T09:24:33.510Z,22.98
2019-04-25T09:25:34.500Z,22.85
2019-04-25T09:26:33.915Z,23.00
2019-04-25T09:27:34.321Z,23.09
2019-04-25T09:28:34.739Z,23.38
2019-04-25T09:29:35.259Z,23.38
2019-04-25T09:30:33.975Z,23.47
2019-04-25T09:31:34.299Z,23.40
2019-04-25T09:32:33.753Z,23.17
2019-04-25T09:33:32.272Z,22.95
2019-04-25T09:34:33.587Z,22.95
2019-04-25T09:35:33.514Z,23.00
2019-04-25T09:36:33.614Z,23.27
2019-04-25T09:37:33.623Z,23.32
2019-04-25T09:38:33.887Z,23.16
2019-04-25T09:39:33.688Z,23.10
2019-04-25T09:40:32.176Z,23.05
2019-04-25T09:41:33.606Z,23.10
2019-04-25T09:42:33.662Z,22.98
2019-04-25T09:43:33.481Z,23.17
2019-04-25T09:44:32.163Z,23.20
2019-04-25T09:45:33.487Z,23.33
2019-04-25T09:46:32.108Z,23.35
2019-04-25T09:47:33.551Z,23.57
2019-04-25T09:48:32.087Z,23.65
2019-04-25T09:49:33.882Z,23.50
2019-04-25T09:50:33.870Z,23.42
2019-04-25T09:51:33.575Z,23.15
2019-04-25T09:52:32.042Z,23.17
2019-04-25T09:53:33.945Z,23.22
2019-04-25T09:54:33.426Z,23.07
2019-04-25T09:55:32.015Z,22.88
2019-04-25T09:56:32.026Z,22.94
2019-04-25T09:57:33.478Z,23.00
2019-04-25T09:58:32.020Z,23.20
2019-04-25T09:59:33.145Z,23.22
2019-04-25T10:00:33.415Z,23.28
2019-04-25T10:01:31.947Z,23.31
2019-04-25T10:02:31.966Z,23.31
2019-04-25T10:03:33.354Z,23.39
2019-04-25T10:04:34.459Z,23.39
2019-04-25T10:05:31.897Z,23.46
2019-04-25T10:06:33.316Z,23.40
2019-04-25T10:07:31.900Z,23.78
2019-04-25T10:08:31.865Z,23.88
2019-04-25T10:09:33.669Z,24.12
2019-04-25T10:10:31.843Z,24.16
2019-04-25T10:11:33.444Z,24.28
2019-04-25T10:12:31.847Z,24.25
2019-04-25T10:13:31.812Z,24.42
2019-04-25T10:14:31.800Z,24.40
2019-04-25T10:15:31.790Z,24.37
2019-04-25T10:16:31.779Z,24.53
2019-04-25T10:17:31.794Z,24.68
2019-04-25T10:18:33.329Z,24.68
2019-04-25T10:19:31.745Z,24.93
2019-04-25T10:20:33.265Z,24.81
2019-04-25T10:21:31.722Z,24.87
2019-04-25T10:22:31.734Z,24.88
2019-04-25T10:23:31.722Z,24.91
2019-04-25T10:24:31.695Z,25.03
2019-04-25T10:25:33.331Z,24.95
2019-04-25T10:26:31.669Z,25.00
2019-04-25T10:27:31.657Z,24.80
2019-04-25T10:28:33.452Z,24.77
2019-04-25T10:29:41.639Z,24.80
2019-04-25T10:30:34.200Z,24.78
2019-04-25T10:31:31.613Z,24.73
2019-04-25T10:32:31.600Z,24.95
2019-04-25T10:33:31.591Z,25.00
2019-04-25T10:34:33.243Z,24.77
2019-04-25T10:35:34.231Z,24.62
2019-04-25T10:36:33.634Z,24.68
2019-04-25T10:37:31.545Z,24.53
2019-04-25T10:38:34.831Z,24.77
2019-04-25T10:39:31.530Z,24.93
2019-04-25T10:40:31.513Z,25.06
2019-04-25T10:41:35.388Z,25.23
2019-04-25T10:42:31.494Z,25.14
2019-04-25T10:43:31.505Z,25.21
2019-04-25T10:44:31.472Z,24.99
2019-04-25T10:45:31.458Z,24.76
2019-04-25T10:46:31.456Z,25.13
2019-04-25T10:47:31.461Z,24.90
2019-04-25T10:48:31.447Z,24.55
2019-04-25T10:49:31.416Z,24.77
2019-04-25T10:50:31.404Z,24.60
2019-04-25T10:51:31.392Z,24.55
2019-04-25T10:52:31.379Z,24.22
2019-04-25T10:53:31.392Z,23.83
2019-04-25T10:54:31.357Z,23.97
2019-04-25T10:55:31.352Z,24.18
2019-04-25T10:56:31.337Z,24.57
2019-04-25T10:57:31.348Z,24.76
2019-04-25T10:58:31.313Z,24.71
2019-04-25T10:59:31.303Z,24.30
2019-04-25T11:00:31.316Z,24.43
2019-04-25T11:01:31.284Z,24.46
2019-04-25T11:02:31.269Z,24.47
2019-04-25T11:03:31.258Z,24.67
2019-04-25T11:04:31.250Z,24.55
2019-04-25T11:05:31.261Z,24.64
2019-04-25T11:06:31.225Z,24.77
2019-04-25T11:07:31.214Z,24.71
2019-04-25T11:08:31.204Z,24.80
2019-04-25T11:09:31.192Z,24.88
2019-04-25T11:10:31.205Z,25.00
2019-04-25T11:11:31.171Z,25.18
2019-04-25T11:12:31.159Z,25.28
2019-04-25T11:13:31.148Z,24.95
2019-04-25T11:14:31.175Z,24.55
2019-04-25T11:15:31.156Z,24.62
2019-04-25T11:16:31.118Z,24.69
2019-04-25T11:17:31.105Z,24.85
2019-04-25T11:18:31.093Z,24.96
2019-04-25T11:19:31.081Z,24.96
2019-04-25T11:20:31.096Z,25.02
2019-04-25T11:21:31.066Z,25.03
2019-04-25T11:22:31.048Z,25.03
2019-04-25T11:23:31.041Z,25.14
2019-04-25T11:24:31.027Z,25.23
2019-04-25T11:25:31.031Z,25.17
2019-04-25T11:26:31.041Z,25.24
2019-04-25T11:27:30.993Z,25.50
2019-04-25T11:28:30.982Z,25.32
2019-04-25T11:29:30.975Z,25.21
2019-04-25T11:30:30.962Z,25.06
2019-04-25T11:31:30.975Z,25.05
2019-04-25T11:32:30.963Z,25.25
2019-04-25T11:33:30.930Z,25.02
2019-04-25T11:34:30.916Z,25.06
2019-04-25T11:35:30.905Z,24.84
2019-04-25T11:36:30.896Z,24.78
2019-04-25T11:37:30.904Z,24.83
2019-04-25T11:38:31.024Z,24.80
2019-04-25T11:39:30.860Z,24.87
2019-04-25T11:40:30.853Z,25.03
2019-04-25T11:41:30.840Z,24.76
2019-04-25T11:42:30.850Z,24.62
2019-04-25T11:43:30.842Z,24.47
2019-04-25T11:44:30.804Z,24.45
2019-04-25T11:45:30.793Z,24.61
2019-04-25T11:46:30.787Z,24.73
2019-04-25T11:47:30.772Z,24.93
2019-04-25T11:48:30.777Z,24.77
2019-04-25T11:49:30.755Z,24.91
2019-04-25T11:50:30.740Z,24.81
2019-04-25T11:51:30.751Z,24.62
2019-04-25T11:52:30.727Z,24.85
2019-04-25T11:53:30.721Z,24.67
2019-04-25T11:54:30.696Z,24.96
2019-04-25T11:55:30.698Z,24.64
2019-04-25T11:56:30.700Z,24.57
2019-04-25T11:57:30.687Z,24.60
2019-04-25T11:58:30.674Z,24.49
2019-04-25T11:59:30.638Z,24.60
2019-04-25T12:00:30.629Z,24.45
2019-04-25T12:01:30.618Z,24.45
2019-04-25T12:02:30.606Z,24.49
2019-04-25T12:03:30.621Z,24.61
2019-04-25T12:04:30.584Z,24.77
2019-04-25T12:05:30.572Z,24.88
2019-04-25T12:06:30.562Z,24.95
2019-04-25T12:07:30.559Z,24.85
2019-04-25T12:08:30.565Z,24.87
2019-04-25T12:09:30.529Z,24.80
2019-04-25T12:10:30.552Z,24.34
2019-04-25T12:11:30.507Z,24.21
2019-04-25T12:12:30.502Z,24.16
2019-04-25T12:13:30.511Z,24.09
2019-04-25T12:14:30.474Z,24.05
2019-04-25T12:15:30.479Z,23.93
2019-04-25T12:16:30.452Z,24.24
2019-04-25T12:17:30.440Z,24.49
2019-04-25T12:18:33.228Z,24.60
2019-04-25T12:19:35.797Z,24.68
2019-04-25T12:20:31.409Z,24.61
2019-04-25T12:21:30.412Z,24.76
2019-04-25T12:22:30.387Z,24.91
2019-04-25T12:23:30.375Z,24.91
2019-04-25T12:24:30.363Z,24.91
2019-04-25T12:25:30.375Z,24.87
2019-04-25T12:26:30.366Z,24.78
2019-04-25T12:27:30.331Z,24.58
2019-04-25T12:28:30.321Z,24.52
2019-04-25T12:29:30.313Z,24.43
2019-04-25T12:30:38.115Z,24.58
2019-04-25T12:31:31.286Z,24.55
2019-04-25T12:32:30.300Z,24.58
2019-04-25T12:33:30.279Z,24.65
2019-04-25T12:34:30.256Z,24.52
2019-04-25T12:35:30.264Z,24.43
2019-04-25T12:36:30.235Z,24.68
2019-04-25T12:37:30.220Z,24.71
2019-04-25T12:38:30.209Z,24.76
2019-04-25T12:39:30.197Z,24.58
2019-04-25T12:40:30.211Z,24.68
2019-04-25T12:41:30.178Z,24.80
2019-04-25T12:42:30.172Z,24.45
2019-04-25T12:43:30.154Z,24.46
2019-04-25T12:44:30.145Z,24.32
2019-04-25T12:45:30.151Z,24.35
2019-04-25T12:46:30.127Z,24.43
2019-04-25T12:47:30.133Z,24.31
2019-04-25T12:48:30.099Z,24.22
2019-04-25T12:49:30.089Z,23.87
2019-04-25T12:50:30.094Z,23.87
2019-04-25T12:51:30.067Z,23.80
2019-04-25T12:52:30.078Z,23.80
2019-04-25T12:53:30.046Z,23.73
2019-04-25T12:54:30.034Z,23.68
2019-04-25T12:55:30.040Z,23.68
2019-04-25T12:56:30.015Z,23.78
2019-04-25T12:57:30.030Z,23.70
2019-04-25T12:58:30.003Z,23.80
2019-04-25T12:59:29.979Z,23.85
2019-04-25T13:00:29.994Z,23.94
2019-04-25T13:01:29.958Z,23.94
2019-04-25T13:02:29.948Z,24.08